Time;durP1;ratioP1;P1;durP2;ratioP2;P2;SDS_P1;SDS_P2;PMS_P1;PMS_P2;Temp;Humidity;BMP_temperature;BMP_pressure;BME280_temperature;BME280_humidity;BME280_pressure;Samples;Min_cycle;Max_cycle;Signal;HPM_P1;HPM_P2
2021/07/24 00:02:00;;;;;;;;;0.75;0.75;;;;;28.07;64.62;98154.53;6276210;22;8853;-76
2021/07/24 00:04:28;;;;;;;;;1.75;1.75;;;;;28.06;64.88;98153.00;6275580;22;9521;-76
2021/07/24 00:06:59;;;;;;;;;0.25;0.25;;;;;28.04;65.19;98166.16;6276950;22;8893;-76
2021/07/24 00:09:31;;;;;;;;;2.00;2.00;;;;;28.05;64.24;98175.06;6276042;22;8798;-75
2021/07/24 00:12:00;;;;;;;;;1.25;1.25;;;;;28.02;64.95;98179.34;6276252;22;8869;-76
2021/07/24 00:14:28;;;;;;;;;2.00;2.00;;;;;28.00;64.99;98186.34;6276080;22;9504;-76
2021/07/24 00:16:57;;;;;;;;;2.50;2.50;;;;;27.96;65.00;98185.59;6276112;22;8884;-76
2021/07/24 00:19:25;;;;;;;;;0.75;0.75;;;;;27.93;64.96;98192.56;6276201;22;8872;-76
2021/07/24 00:21:54;;;;;;;;;1.50;1.50;;;;;27.86;65.62;98184.47;6276195;22;8805;-76
2021/07/24 00:24:22;;;;;;;;;1.50;1.50;;;;;27.84;64.39;98195.72;6275985;22;8795;-76
2021/07/24 00:26:50;;;;;;;;;1.00;1.00;;;;;27.86;65.44;98200.72;6275947;22;8783;-76
2021/07/24 00:29:19;;;;;;;;;0.00;0.00;;;;;27.85;65.69;98202.66;6275954;22;8818;-76
2021/07/24 00:31:47;;;;;;;;;1.00;1.00;;;;;27.85;65.70;98208.09;6275981;22;8767;-75
2021/07/24 00:34:17;;;;;;;;;0.75;0.75;;;;;27.87;65.39;98205.75;6276038;22;8803;-76
2021/07/24 00:36:46;;;;;;;;;1.25;1.25;;;;;27.84;65.30;98200.34;6275930;22;8787;-75
2021/07/24 00:39:15;;;;;;;;;1.75;1.75;;;;;27.88;65.22;98211.94;6275901;22;8787;-75
2021/07/24 00:41:51;;;;;;;;;0.75;0.75;;;;;27.88;64.90;98210.00;6276364;22;8884;-76
2021/07/24 00:44:23;;;;;;;;;0.25;0.25;;;;;27.89;65.48;98213.50;6276617;22;8795;-75
2021/07/24 00:46:55;;;;;;;;;1.00;1.00;;;;;27.88;65.65;98209.25;6273762;22;8783;-74
2021/07/24 00:49:26;;;;;;;;;1.33;1.33;;;;;27.91;65.34;98222.00;6275224;22;8822;-73
2021/07/24 00:51:55;;;;;;;;;1.50;1.50;;;;;27.88;65.21;98218.16;6275690;22;8791;-73
2021/07/24 00:54:24;;;;;;;;;1.00;1.00;;;;;27.91;65.46;98219.28;6249526;22;8787;-73
2021/07/24 00:56:53;;;;;;;;;1.75;1.75;;;;;27.94;64.80;98227.41;6273342;22;8791;-73
2021/07/24 00:59:21;;;;;;;;;1.25;1.25;;;;;27.99;64.37;98231.66;6273926;22;8888;-74
2021/07/24 01:01:51;;;;;;;;;1.00;1.00;;;;;28.03;64.82;98235.13;6274018;22;8822;-71
2021/07/24 01:04:20;;;;;;;;;1.00;1.00;;;;;28.04;64.60;98233.19;6274156;22;8791;-71
2021/07/24 01:06:49;;;;;;;;;0.75;0.75;;;;;28.06;64.44;98233.56;6275655;22;8865;-72
2021/07/24 01:09:18;;;;;;;;;0.50;0.50;;;;;28.05;65.02;98232.00;6275131;22;8811;-72
2021/07/24 01:11:48;;;;;;;;;1.00;1.00;;;;;28.03;64.82;98237.81;6275212;22;8815;-72
2021/07/24 01:14:17;;;;;;;;;1.75;1.75;;;;;27.98;63.27;98232.81;6275110;22;8814;-72
2021/07/24 01:16:46;;;;;;;;;1.00;1.00;;;;;27.93;65.19;98236.72;6275752;22;8803;-71
2021/07/24 01:19:16;;;;;;;;;0.75;0.75;;;;;27.90;65.00;98229.38;6275865;22;8799;-72
2021/07/24 01:21:44;;;;;;;;;1.00;1.00;;;;;27.88;65.29;98223.56;6275343;22;8787;-72
2021/07/24 01:24:13;;;;;;;;;1.00;1.00;;;;;27.94;64.96;98232.84;6275326;22;8795;-71
2021/07/24 01:26:45;;;;;;;;;0.75;0.75;;;;;27.98;64.95;98243.66;6274428;22;8779;-72
2021/07/24 01:29:15;;;;;;;;;0.75;0.75;;;;;27.98;65.02;98245.59;6275122;22;8865;-71
2021/07/24 01:31:44;;;;;;;;;1.00;1.00;;;;;27.99;65.01;98237.06;6274580;22;8791;-73
2021/07/24 01:34:14;;;;;;;;;1.00;1.00;;;;;28.04;65.01;98252.16;6274871;22;9539;-72
2021/07/24 01:36:43;;;;;;;;;0.00;0.00;;;;;28.03;64.97;98250.63;6248388;22;8791;-71
2021/07/24 01:39:12;;;;;;;;;1.75;1.75;;;;;28.04;65.21;98246.72;6274503;22;8849;-72
2021/07/24 01:41:45;;;;;;;;;0.25;0.25;;;;;28.01;65.38;98253.72;6274209;22;9516;-72
2021/07/24 01:44:19;;;;;;;;;1.00;1.00;;;;;28.00;63.78;98243.25;6274802;22;8779;-72
2021/07/24 01:46:47;;;;;;;;;1.75;1.75;;;;;28.07;64.73;98264.94;6275269;22;8818;-72
2021/07/24 01:52:46;;;;;;;;;1.25;1.25;;;;;28.02;65.13;98262.63;6274302;22;8888;-72
2021/07/24 01:55:04;;;;;;;;;2.00;1.50;;;;;27.86;65.09;98253.00;6273773;22;8866;-72
2021/07/24 01:57:35;;;;;;;;;1.00;1.00;;;;;27.82;65.75;98259.59;6271716;22;8779;-72
2021/07/24 02:00:11;;;;;;;;;0.00;0.00;;;;;27.78;65.02;98262.31;6246921;22;8800;-72
2021/07/24 02:02:56;;;;;;;;;0.25;0.25;;;;;27.74;65.50;98258.84;6272371;22;8825;-71
2021/07/24 02:05:41;;;;;;;;;1.00;1.00;;;;;27.70;65.90;98255.38;6246370;22;8909;-72
2021/07/24 02:08:16;;;;;;;;;0.50;0.50;;;;;27.65;63.66;98244.94;6272609;22;8814;-72
2021/07/24 02:10:44;;;;;;;;;1.00;1.00;;;;;27.66;65.15;98251.13;6273043;22;8811;-71
2021/07/24 02:13:14;;;;;;;;;1.00;1.00;;;;;27.67;64.86;98249.97;6273474;22;8779;-72
2021/07/24 02:15:43;;;;;;;;;1.00;1.00;;;;;27.66;64.13;98243.00;6272998;22;8807;-71
2021/07/24 02:18:20;;;;;;;;;1.00;1.00;;;;;27.73;64.89;98248.41;6273517;22;8844;-72
2021/07/24 02:20:49;;;;;;;;;2.00;2.00;;;;;27.73;64.56;98249.19;6272756;22;8823;-72
2021/07/24 02:23:18;;;;;;;;;0.75;0.75;;;;;27.73;64.23;98248.41;6273367;22;8827;-71
2021/07/24 02:25:47;;;;;;;;;1.25;1.25;;;;;27.75;64.47;98246.06;6272824;22;8799;-71
2021/07/24 02:28:15;;;;;;;;;1.00;1.00;;;;;27.79;63.50;98244.91;6275987;22;8857;-71
2021/07/24 02:30:44;;;;;;;;;0.75;0.75;;;;;27.77;64.08;98236.38;6273676;22;8793;-71
2021/07/24 02:33:13;;;;;;;;;0.75;0.75;;;;;27.86;64.86;98249.53;6273519;22;8814;-71
2021/07/24 02:35:42;;;;;;;;;1.00;1.00;;;;;27.84;65.59;98244.50;6272756;22;8803;-71
2021/07/24 02:38:11;;;;;;;;;0.00;0.00;;;;;27.85;64.06;98256.09;6273330;22;8830;-71
2021/07/24 02:40:40;;;;;;;;;1.00;1.00;;;;;27.81;63.90;98258.84;6273719;22;8799;-71
2021/07/24 02:43:08;;;;;;;;;1.00;1.00;;;;;27.82;65.33;98263.09;6272901;22;8825;-73
2021/07/24 02:45:37;;;;;;;;;0.50;0.50;;;;;27.80;64.70;98260.00;6273561;22;8779;-72
2021/07/24 02:48:06;;;;;;;;;0.75;0.75;;;;;27.77;65.19;98266.19;6274420;22;8876;-72
2021/07/24 02:50:34;;;;;;;;;0.75;0.75;;;;;27.75;65.84;98267.75;6274830;22;8799;-72
2021/07/24 02:53:04;;;;;;;;;0.75;0.75;;;;;27.75;65.95;98276.66;6275731;22;8802;-72
2021/07/24 02:55:32;;;;;;;;;0.75;0.75;;;;;27.74;64.59;98282.47;6274883;22;9540;-71
2021/07/24 02:58:01;;;;;;;;;0.75;0.75;;;;;27.74;64.74;98294.09;6274123;22;8795;-72
2021/07/24 03:00:30;;;;;;;;;1.00;1.00;;;;;27.73;64.64;98273.56;6274623;22;8953;-72
2021/07/24 03:02:59;;;;;;;;;1.50;1.50;;;;;27.77;65.05;98266.19;6275074;22;8838;-72
2021/07/24 03:05:28;;;;;;;;;1.00;1.00;;;;;27.78;64.16;98265.03;6275951;22;8908;-72
2021/07/24 03:07:57;;;;;;;;;1.00;1.00;;;;;27.81;64.01;98239.09;6276050;22;8844;-72
2021/07/24 03:10:25;;;;;;;;;0.00;0.00;;;;;27.82;64.14;98229.78;6275376;22;8795;-72
2021/07/24 03:12:54;;;;;;;;;0.75;0.75;;;;;27.81;63.94;98229.03;6275892;22;8878;-72
2021/07/24 03:15:23;;;;;;;;;1.25;1.25;;;;;27.81;64.25;98242.56;6275382;22;8791;-71
2021/07/24 03:17:51;;;;;;;;;2.50;2.50;;;;;27.83;64.03;98251.06;6275049;22;8802;-72
2021/07/24 03:20:20;;;;;;;;;1.00;1.00;;;;;27.88;64.41;98256.09;6276105;22;8794;-72
2021/07/24 03:22:49;;;;;;;;;1.00;1.00;;;;;27.88;64.17;98253.38;6275569;22;8833;-72
2021/07/24 03:25:20;;;;;;;;;1.50;1.50;;;;;27.89;64.29;98263.06;6274947;22;8887;-71
2021/07/24 03:27:49;;;;;;;;;0.50;0.50;;;;;27.87;63.92;98268.09;6275617;22;8839;-71
2021/07/24 03:30:17;;;;;;;;;1.00;1.00;;;;;27.87;64.54;98264.63;6275968;22;8802;-71
2021/07/24 03:32:46;;;;;;;;;1.00;1.00;;;;;27.84;64.22;98266.19;6275453;22;8795;-71
2021/07/24 03:35:15;;;;;;;;;1.25;1.25;;;;;27.84;64.07;98266.19;6275832;22;8787;-71
2021/07/24 03:37:43;;;;;;;;;1.00;1.00;;;;;27.89;64.36;98262.28;6274682;22;8813;-71
2021/07/24 03:40:12;;;;;;;;;1.50;1.50;;;;;27.89;64.86;98241.38;6275748;22;8787;-71
2021/07/24 03:42:41;;;;;;;;;2.25;2.25;;;;;27.90;64.39;98259.19;6275435;22;8802;-71
2021/07/24 03:45:10;;;;;;;;;1.50;1.50;;;;;27.93;64.32;98266.53;6274863;22;8817;-72
2021/07/24 03:47:39;;;;;;;;;0.50;0.50;;;;;27.90;63.64;98250.28;6276135;22;8811;-71
2021/07/24 03:50:08;;;;;;;;;1.75;1.75;;;;;27.98;64.75;98265.34;6275973;22;8795;-71
2021/07/24 03:52:36;;;;;;;;;1.00;1.00;;;;;27.99;64.64;98256.06;6275637;22;8905;-72
2021/07/24 03:55:05;;;;;;;;;1.25;1.25;;;;;28.00;63.93;98249.47;6276166;22;8803;-72
2021/07/24 03:57:34;;;;;;;;;1.25;1.25;;;;;28.02;64.05;98249.06;6275452;22;8810;-71
2021/07/24 04:00:03;;;;;;;;;2.25;1.75;;;;;27.98;65.12;98238.25;6275646;22;8821;-72
2021/07/24 04:02:33;;;;;;;;;1.75;1.75;;;;;28.03;65.32;98251.38;6275524;22;9532;-72
2021/07/24 04:05:02;;;;;;;;;2.50;2.50;;;;;28.02;64.15;98239.00;6275507;22;8872;-72
2021/07/24 04:07:31;;;;;;;;;1.00;1.00;;;;;28.02;64.06;98241.72;6275276;22;8794;-72
2021/07/24 04:09:59;;;;;;;;;1.75;1.75;;;;;28.00;64.49;98241.31;6275958;22;8818;-73
2021/07/24 04:12:29;;;;;;;;;1.00;1.00;;;;;27.99;64.50;98228.94;6273266;22;8810;-72
2021/07/24 04:15:01;;;;;;;;;1.00;1.00;;;;;27.99;64.66;98230.88;6274234;22;8802;-71
2021/07/24 04:17:31;;;;;;;;;2.00;2.00;;;;;27.97;64.97;98242.13;6274384;22;8795;-71
2021/07/24 04:19:59;;;;;;;;;2.00;2.00;;;;;27.97;64.39;98230.50;6274747;22;8813;-73
2021/07/24 04:22:28;;;;;;;;;1.00;1.00;;;;;28.03;64.87;98242.47;6274217;22;8787;-72
2021/07/24 04:24:57;;;;;;;;;1.00;1.00;;;;;28.03;65.11;98235.13;6273525;22;8787;-72
2021/07/24 04:27:25;;;;;;;;;1.00;1.00;;;;;28.04;64.86;98238.59;6272739;22;8941;-73
2021/07/24 04:29:54;;;;;;;;;2.00;2.00;;;;;28.01;64.65;98226.59;6274366;22;8877;-72
2021/07/24 04:32:22;;;;;;;;;1.25;1.25;;;;;28.03;64.38;98235.13;6275587;22;8779;-71
2021/07/24 04:34:51;;;;;;;;;1.00;1.00;;;;;28.04;65.13;98228.53;6248684;22;8806;-72
2021/07/24 04:37:19;;;;;;;;;1.00;1.00;;;;;28.10;64.98;98237.03;6275167;22;8783;-71
2021/07/24 04:39:48;;;;;;;;;1.25;1.25;;;;;28.10;65.13;98228.88;6275572;22;8986;-71
2021/07/24 04:42:17;;;;;;;;;1.00;1.00;;;;;28.13;64.57;98225.38;6275158;22;8795;-72
2021/07/24 04:44:46;;;;;;;;;2.00;2.00;;;;;28.16;64.65;98230.78;6275315;22;8814;-71
2021/07/24 04:47:15;;;;;;;;;1.75;1.75;;;;;27.99;65.62;98195.63;6271838;22;8864;-72
2021/07/24 04:49:53;;;;;;;;;1.25;1.25;;;;;28.26;64.13;98223.78;6273751;22;8799;-72
2021/07/24 04:52:23;;;;;;;;;1.00;1.00;;;;;28.29;64.33;98211.38;6274012;22;8807;-73
2021/07/24 04:54:54;;;;;;;;;2.50;2.50;;;;;28.32;64.85;98219.50;6274056;22;8795;-72
2021/07/24 04:57:23;;;;;;;;;0.00;0.00;;;;;28.34;64.93;98214.44;6274447;22;8826;-72
2021/07/24 04:59:52;;;;;;;;;1.00;1.00;;;;;28.38;64.24;98211.72;6273985;22;8992;-72
2021/07/24 05:02:21;;;;;;;;;1.00;1.00;;;;;28.41;65.03;98210.91;6274258;22;8834;-72
2021/07/24 05:04:54;;;;;;;;;2.00;2.00;;;;;28.43;65.05;98208.56;6273937;22;8806;-72
2021/07/24 05:07:23;;;;;;;;;1.50;1.50;;;;;28.45;64.44;98208.94;6273951;22;8913;-72
2021/07/24 05:09:51;;;;;;;;;2.00;2.00;;;;;28.41;64.88;98210.91;6274133;22;8829;-73
2021/07/24 05:12:20;;;;;;;;;1.00;1.00;;;;;28.41;63.87;98211.69;6273615;22;8860;-71
2021/07/24 05:14:49;;;;;;;;;1.00;1.00;;;;;28.31;64.94;98200.91;6273761;22;8819;-72
2021/07/24 05:17:18;;;;;;;;;1.75;1.75;;;;;28.37;64.53;98205.50;6273735;22;8787;-72
2021/07/24 05:19:47;;;;;;;;;2.50;2.50;;;;;28.33;65.47;98204.75;6273790;22;8790;-71
2021/07/24 05:22:16;;;;;;;;;1.75;1.75;;;;;28.31;64.98;98207.09;6273640;22;8817;-72
2021/07/24 05:24:45;;;;;;;;;5.00;5.00;;;;;28.31;64.78;98200.91;6274089;22;8875;-72
2021/07/24 05:27:15;;;;;;;;;2.00;2.00;;;;;28.32;65.33;98202.44;6273432;22;8810;-71
2021/07/24 05:29:43;;;;;;;;;2.00;2.00;;;;;28.33;65.42;98199.34;6273253;22;8877;-72
2021/07/24 05:32:13;;;;;;;;;2.25;2.25;;;;;28.29;65.03;98197.81;6273788;22;8802;-72
2021/07/24 05:34:42;;;;;;;;;1.25;1.25;;;;;28.25;65.68;98192.41;6273769;22;8803;-73
2021/07/24 05:37:10;;;;;;;;;1.75;1.75;;;;;28.23;65.54;98171.13;6273040;22;8817;-72
2021/07/24 05:39:39;;;;;;;;;1.00;1.00;;;;;28.26;65.96;98169.53;6273317;22;8846;-72
2021/07/24 05:42:08;;;;;;;;;1.25;1.25;;;;;28.25;65.52;98166.06;6273821;22;8786;-72
2021/07/24 05:44:36;;;;;;;;;1.50;1.50;;;;;28.30;66.01;98167.59;6274017;22;8799;-70
2021/07/24 05:47:05;;;;;;;;;0.75;0.75;;;;;28.35;65.66;98166.38;6273988;22;8787;-72
2021/07/24 05:49:37;;;;;;;;;1.50;1.50;;;;;28.38;65.17;98165.59;6272613;22;8818;-71
2021/07/24 05:52:11;;;;;;;;;1.00;1.00;;;;;28.36;64.97;98159.78;6271584;22;8802;-72
2021/07/24 05:54:40;;;;;;;;;0.75;0.75;;;;;28.42;64.73;98169.03;6274048;22;8885;-73
2021/07/24 05:57:09;;;;;;;;;2.00;2.00;;;;;28.43;64.63;98167.88;6281065;22;8858;-72
2021/07/24 05:59:38;;;;;;;;;1.00;1.00;;;;;28.38;65.43;98158.22;6279551;22;8803;-73
2021/07/24 06:02:07;;;;;;;;;2.00;2.00;;;;;28.43;64.84;98165.94;6277419;22;8798;-73
2021/07/24 06:04:39;;;;;;;;;1.00;1.00;;;;;28.45;64.79;98169.03;6275310;22;8818;-74
2021/07/24 06:07:07;;;;;;;;;1.00;1.00;;;;;28.48;65.14;98168.22;6274426;22;8791;-73
2021/07/24 06:09:36;;;;;;;;;1.00;1.00;;;;;28.50;64.72;98162.41;6272460;22;8799;-73
2021/07/24 06:12:06;;;;;;;;;1.00;1.00;;;;;28.53;65.21;98164.31;6274211;22;8890;-73
2021/07/24 06:14:35;;;;;;;;;1.25;1.25;;;;;28.49;65.01;98155.44;6274746;22;8806;-72
2021/07/24 06:17:04;;;;;;;;;1.00;1.00;;;;;28.54;65.45;98158.47;6274823;22;8791;-73
2021/07/24 06:19:33;;;;;;;;;2.00;2.00;;;;;28.57;64.77;98165.81;6274782;22;8798;-73
2021/07/24 06:22:02;;;;;;;;;2.00;2.00;;;;;28.58;64.55;98153.81;6276273;22;8790;-73
2021/07/24 06:24:31;;;;;;;;;3.00;1.25;;;;;28.59;65.10;98146.44;6276775;22;9512;-73
2021/07/24 06:26:59;;;;;;;;;1.50;1.50;;;;;28.60;66.07;98147.19;6276953;22;8806;-73
2021/07/24 06:29:28;;;;;;;;;0.75;0.75;;;;;28.60;66.28;98147.97;6276481;22;8795;-73
2021/07/24 06:32:03;;;;;;;;;1.00;1.00;;;;;28.62;65.23;98151.03;6276542;22;8886;-73
2021/07/24 06:34:31;;;;;;;;;1.00;1.00;;;;;28.61;65.18;98154.13;6276516;22;8822;-73
2021/07/24 06:37:01;;;;;;;;;1.00;1.00;;;;;28.65;65.42;98146.75;6276704;22;8878;-73
2021/07/24 06:39:29;;;;;;;;;1.00;1.00;;;;;28.66;64.85;98154.47;6276154;22;8819;-73
2021/07/24 06:41:58;;;;;;;;;1.25;1.25;;;;;28.65;64.06;98155.66;6276666;22;8873;-73
2021/07/24 06:44:27;;;;;;;;;1.00;1.00;;;;;28.65;64.25;98166.50;6277008;22;8922;-73
2021/07/24 06:46:57;;;;;;;;;1.00;1.00;;;;;28.64;64.72;98159.53;6249798;22;8806;-73
2021/07/24 06:49:25;;;;;;;;;1.00;1.00;;;;;28.66;64.36;98153.72;6275222;22;8795;-73
2021/07/24 06:51:54;;;;;;;;;0.50;0.50;;;;;28.66;65.05;98145.56;6272144;22;8799;-71
2021/07/24 06:54:22;;;;;;;;;0.75;0.75;;;;;28.62;65.25;98139.41;6272466;22;8815;-73
2021/07/24 06:56:51;;;;;;;;;0.75;0.75;;;;;28.65;66.08;98144.03;6273462;22;8798;-72
2021/07/24 06:59:19;;;;;;;;;1.00;1.00;;;;;28.61;64.70;98140.56;6273552;22;8826;-72
2021/07/24 07:01:48;;;;;;;;;0.50;0.50;;;;;28.60;64.40;98131.69;6272907;22;8815;-72
2021/07/24 07:04:18;;;;;;;;;0.50;0.50;;;;;28.60;64.88;98130.91;6246639;22;8823;-72
2021/07/24 07:06:46;;;;;;;;;1.00;1.00;;;;;28.53;65.52;98129.03;6273945;22;8837;-71
2021/07/24 07:09:15;;;;;;;;;0.00;0.00;;;;;28.58;64.95;98134.81;6273638;22;8810;-72
2021/07/24 07:11:43;;;;;;;;;1.00;1.00;;;;;28.60;65.23;98133.63;6273812;22;8880;-72
2021/07/24 07:14:11;;;;;;;;;0.75;0.75;;;;;28.60;65.67;98123.53;6273422;22;8875;-72
2021/07/24 07:16:40;;;;;;;;;0.00;0.00;;;;;28.61;65.85;98127.78;6273761;22;8799;-72
2021/07/24 07:19:32;;;;;;;;;0.50;0.50;;;;;28.56;65.85;98120.88;6275273;22;8755;-73
2021/07/24 07:22:02;;;;;;;;;1.00;1.00;;;;;28.56;65.43;98114.66;6275086;22;8830;-73
2021/07/24 07:24:33;;;;;;;;;0.75;0.75;;;;;28.50;64.98;98111.63;6274033;22;8799;-71
2021/07/24 07:27:02;;;;;;;;;1.00;1.00;;;;;28.54;65.63;98106.16;6274786;22;8791;-73
2021/07/24 07:29:30;;;;;;;;;0.75;0.75;;;;;28.52;65.27;98097.66;6274849;22;8825;-71
2021/07/24 07:31:59;;;;;;;;;1.00;1.00;;;;;28.56;66.17;98110.00;6274141;22;9551;-72
2021/07/24 07:34:28;;;;;;;;;0.25;0.25;;;;;28.56;64.53;98098.38;6274938;22;8791;-72
2021/07/24 07:37:00;;;;;;;;;0.50;0.50;;;;;28.58;65.45;98102.25;6275808;22;8884;-73
2021/07/24 07:39:28;;;;;;;;;0.75;0.75;;;;;28.57;64.94;98094.50;6273635;22;8805;-73
2021/07/24 07:41:57;;;;;;;;;0.00;0.00;;;;;28.49;65.64;98074.03;6274070;22;9537;-72
2021/07/24 07:44:26;;;;;;;;;0.75;0.75;;;;;28.52;66.21;98068.56;6273869;22;8791;-72
2021/07/24 07:46:56;;;;;;;;;0.00;0.00;;;;;28.52;66.37;98071.28;6271968;22;8811;-72
2021/07/24 07:49:25;;;;;;;;;0.75;0.75;;;;;28.49;65.52;98068.59;6273103;22;8798;-74
2021/07/24 07:51:53;;;;;;;;;0.75;0.75;;;;;28.54;65.78;98076.31;6273271;22;8879;-72
2021/07/24 07:54:22;;;;;;;;;0.00;0.00;;;;;28.53;66.08;98075.53;6273044;22;8787;-73
2021/07/24 07:56:51;;;;;;;;;0.80;0.80;;;;;28.58;66.09;98077.81;6271983;22;8865;-71
2021/07/24 07:59:19;;;;;;;;;0.75;0.75;;;;;28.61;66.30;98078.16;6271898;22;8791;-73
2021/07/24 08:02:11;;;;;;;;;0.00;0.00;;;;;28.65;65.49;98076.19;6274593;22;8766;-75
2021/07/24 08:05:03;;;;;;;;;1.00;1.00;;;;;28.66;65.91;98078.50;6272187;22;8763;-74
2021/07/24 08:07:31;;;;;;;;;0.00;0.00;;;;;28.66;66.10;98069.59;6274969;22;8809;-74
2021/07/24 08:10:00;;;;;;;;;0.00;0.00;;;;;28.63;65.83;98064.97;6276242;22;8814;-74
2021/07/24 08:12:28;;;;;;;;;0.25;0.25;;;;;28.65;65.75;98073.47;6275736;22;8783;-74
2021/07/24 08:14:57;;;;;;;;;0.25;0.25;;;;;28.66;66.67;98069.59;6276079;22;8860;-74
2021/07/24 08:17:26;;;;;;;;;0.00;0.00;;;;;28.64;66.13;98066.50;6275988;22;8795;-74
2021/07/24 08:19:54;;;;;;;;;0.40;0.40;;;;;28.65;65.66;98074.25;6276140;22;8858;-74
2021/07/24 08:22:22;;;;;;;;;0.25;0.25;;;;;28.62;66.26;98069.63;6276262;22;9535;-74
2021/07/24 08:24:51;;;;;;;;;0.00;0.00;;;;;28.56;65.84;98057.69;6276176;22;8782;-74
2021/07/24 08:27:20;;;;;;;;;0.00;0.00;;;;;28.58;66.50;98066.97;6276144;22;8794;-74
2021/07/24 08:29:49;;;;;;;;;2.00;0.00;;;;;28.53;66.83;98061.22;6276086;22;8798;-74
2021/07/24 08:32:17;;;;;;;;;1.00;1.00;;;;;28.57;66.78;98068.13;6275937;22;8861;-74
2021/07/24 08:34:53;;;;;;;;;0.00;0.00;;;;;28.57;65.95;98059.22;6276006;22;8825;-74
2021/07/24 08:37:22;;;;;;;;;0.00;0.00;;;;;28.55;66.97;98059.63;6276621;22;8857;-74
2021/07/24 08:39:51;;;;;;;;;0.25;0.25;;;;;28.53;65.78;98061.22;6275897;22;8858;-74
2021/07/24 08:42:32;;;;;;;;;0.75;0.75;;;;;28.55;66.78;98061.56;6275989;22;8808;-74
2021/07/24 08:45:01;;;;;;;;;0.00;0.00;;;;;28.52;65.37;98062.38;6275729;22;8867;-74
2021/07/24 08:47:30;;;;;;;;;0.00;0.00;;;;;28.51;67.26;98061.59;6275938;22;8803;-74
2021/07/24 08:50:00;;;;;;;;;0.00;0.00;;;;;28.49;66.73;98052.31;6276104;22;8775;-74
2021/07/24 08:52:31;;;;;;;;;0.00;0.00;;;;;28.47;66.89;98058.16;6275818;22;8869;-74
2021/07/24 08:55:01;;;;;;;;;0.00;0.00;;;;;28.45;67.20;98054.31;6275884;22;8818;-74
2021/07/24 08:57:33;;;;;;;;;0.00;0.00;;;;;28.45;66.14;98055.06;6276017;22;8811;-74
2021/07/24 09:00:08;;;;;;;;;0.00;0.00;;;;;28.42;66.05;98052.41;6275989;22;8787;-73
2021/07/24 09:02:40;;;;;;;;;0.00;0.00;;;;;28.34;66.40;98048.97;6275886;22;8807;-74
2021/07/24 09:05:11;;;;;;;;;0.00;0.00;;;;;28.29;66.43;98049.41;6275933;22;8771;-74
2021/07/24 09:07:43;;;;;;;;;0.00;0.00;;;;;28.26;66.43;98044.78;6275767;22;8888;-74
2021/07/24 09:10:11;;;;;;;;;0.00;0.00;;;;;28.29;66.54;98045.94;6275794;22;8813;-73
2021/07/24 09:12:42;;;;;;;;;0.00;0.00;;;;;28.28;67.18;98044.38;6275537;22;8839;-74
2021/07/24 09:15:14;;;;;;;;;0.00;0.00;;;;;28.26;66.10;98036.66;6275842;22;8897;-73
2021/07/24 09:17:43;;;;;;;;;0.00;0.00;;;;;28.24;65.68;98030.84;6276108;22;8856;-74
2021/07/24 09:20:13;;;;;;;;;0.00;0.00;;;;;28.21;67.00;98037.81;6275813;22;8814;-73
2021/07/24 09:22:43;;;;;;;;;0.00;0.00;;;;;28.18;66.31;98033.19;6275667;22;8798;-73
2021/07/24 09:25:20;;;;;;;;;0.00;0.00;;;;;28.16;66.84;98037.47;6278151;22;8790;-74
2021/07/24 09:27:53;;;;;;;;;0.00;0.00;;;;;28.17;66.69;98039.03;6286101;22;8787;-73
2021/07/24 09:30:33;;;;;;;;;0.00;0.00;;;;;28.15;66.69;98035.94;6284693;22;8798;-74
2021/07/24 09:33:14;;;;;;;;;0.00;0.00;;;;;28.12;65.72;98034.03;6276270;22;8783;-74
2021/07/24 09:35:59;;;;;;;;;0.00;0.00;;;;;28.09;67.36;98035.59;6278532;22;8795;-74
2021/07/24 09:38:37;;;;;;;;;0.00;0.00;;;;;28.06;67.07;98032.91;6276459;22;8799;-73
2021/07/24 09:41:18;;;;;;;;;0.75;0.75;;;;;28.00;66.65;98029.88;6275580;22;9560;-73
2021/07/24 09:43:46;;;;;;;;;0.00;0.00;;;;;27.98;67.61;98031.44;6275820;22;8775;-73
2021/07/24 09:46:20;;;;;;;;;0.00;0.00;;;;;27.97;68.08;98027.19;6275516;22;8787;-73
2021/07/24 09:48:51;;;;;;;;;0.00;0.00;;;;;28.00;67.86;98031.81;6275591;22;8791;-73
2021/07/24 09:51:36;;;;;;;;;0.00;0.00;;;;;28.02;68.03;98032.19;6275547;22;8904;-74
2021/07/24 09:54:06;;;;;;;;;0.00;0.00;;;;;28.04;67.43;98032.56;6275827;22;8888;-74
2021/07/24 09:56:43;;;;;;;;;0.00;0.00;;;;;28.04;67.44;98022.47;6277545;22;8795;-74
2021/07/24 09:59:28;;;;;;;;;0.00;0.00;;;;;28.03;67.57;98025.59;6277646;22;8872;-74
2021/07/24 10:01:58;;;;;;;;;0.00;0.00;;;;;28.01;68.26;98025.22;6277380;22;8803;-74
2021/07/24 10:04:34;;;;;;;;;0.00;0.00;;;;;27.99;67.55;98025.63;6277538;22;8791;-74
2021/07/24 10:07:24;;;;;;;;;0.00;0.00;;;;;27.98;67.25;98031.44;6278734;22;8827;-74
2021/07/24 10:09:52;;;;;;;;;0.00;0.00;;;;;27.96;67.59;98026.41;6277807;22;8787;-74
2021/07/24 10:12:21;;;;;;;;;0.00;0.00;;;;;27.96;67.46;98033.78;6277468;22;8803;-74
2021/07/24 10:14:52;;;;;;;;;0.00;0.00;;;;;27.96;67.89;98029.13;6277771;22;8830;-74
2021/07/24 10:17:20;;;;;;;;;0.00;0.00;;;;;27.91;67.62;98035.75;6277750;22;8794;-74
2021/07/24 10:19:50;;;;;;;;;0.00;0.00;;;;;27.88;68.20;98027.63;6277617;22;8783;-73
2021/07/24 10:22:20;;;;;;;;;0.00;0.00;;;;;27.95;67.98;98049.28;6277275;22;8815;-74
2021/07/24 10:24:50;;;;;;;;;0.00;0.00;;;;;27.93;67.97;98030.69;6277359;22;8791;-74
2021/07/24 10:27:29;;;;;;;;;0.00;0.00;;;;;27.96;67.91;98042.69;6277300;22;8783;-74
2021/07/24 10:30:03;;;;;;;;;0.00;0.00;;;;;27.97;66.58;98035.31;6277383;22;8806;-73
2021/07/24 10:32:35;;;;;;;;;0.00;0.00;;;;;27.96;68.07;98039.97;6277171;22;8830;-73
2021/07/24 10:35:04;;;;;;;;;0.00;0.00;;;;;27.94;68.31;98037.66;6277336;22;8790;-74
2021/07/24 10:37:46;;;;;;;;;0.00;0.00;;;;;27.93;68.15;98041.53;6277262;22;8865;-74
2021/07/24 10:40:20;;;;;;;;;0.00;0.00;;;;;27.92;68.09;98037.28;6277205;22;8787;-73
2021/07/24 10:42:53;;;;;;;;;0.00;0.00;;;;;27.91;68.23;98037.69;6277258;22;8787;-73
2021/07/24 10:45:34;;;;;;;;;0.25;0.25;;;;;27.88;67.87;98036.53;6277780;22;8803;-73
2021/07/24 10:48:23;;;;;;;;;0.00;0.00;;;;;27.86;67.85;98041.59;6278064;22;8881;-74
2021/07/24 10:50:55;;;;;;;;;1.00;1.00;;;;;27.85;67.89;98045.47;6277051;22;8790;-74
2021/07/24 10:53:27;;;;;;;;;0.00;0.00;;;;;27.85;68.11;98044.69;6276912;22;8795;-73
2021/07/24 10:55:57;;;;;;;;;0.00;0.00;;;;;27.84;67.80;98046.63;6277167;22;8783;-73
2021/07/24 10:58:28;;;;;;;;;0.00;0.00;;;;;27.84;68.49;98049.34;6277873;22;8783;-74
2021/07/24 11:00:58;;;;;;;;;0.00;0.00;;;;;27.85;67.75;98048.19;6276808;22;8794;-74
2021/07/24 11:03:44;;;;;;;;;0.00;0.00;;;;;27.86;68.13;98040.81;6276979;22;8801;-74
2021/07/24 11:06:27;;;;;;;;;0.00;0.00;;;;;27.88;67.90;98039.25;6276627;22;8779;-74
2021/07/24 11:09:15;;;;;;;;;0.00;0.00;;;;;27.87;67.94;98043.13;6277141;22;8783;-74
2021/07/24 11:12:00;;;;;;;;;0.00;0.00;;;;;27.87;68.66;98042.34;6277086;22;8798;-74
2021/07/24 11:14:49;;;;;;;;;0.00;0.00;;;;;27.87;68.92;98045.06;6276816;22;8805;-74
2021/07/24 11:17:19;;;;;;;;;1.00;1.00;;;;;27.88;68.36;98033.06;6277118;22;8929;-74
2021/07/24 11:20:25;;;;;;;;;0.00;0.00;;;;;27.89;68.83;98040.78;6276945;22;8913;-74
2021/07/24 11:23:04;;;;;;;;;0.00;0.00;;;;;27.88;68.34;98041.97;6276691;22;9551;-74
2021/07/24 11:25:34;;;;;;;;;0.00;0.00;;;;;27.88;68.51;98044.66;6277080;22;8845;-74
2021/07/24 11:28:03;;;;;;;;;0.00;0.00;;;;;27.88;68.85;98041.19;6276723;22;8787;-73
2021/07/24 11:30:32;;;;;;;;;0.00;0.00;;;;;27.88;68.50;98036.53;6276688;22;8880;-74
2021/07/24 11:33:01;;;;;;;;;0.00;0.00;;;;;27.90;68.75;98050.47;6276960;22;8795;-74
2021/07/24 11:35:33;;;;;;;;;0.00;0.00;;;;;27.92;68.58;98045.41;6276662;22;8779;-74
2021/07/24 11:38:02;;;;;;;;;0.00;0.00;;;;;27.91;68.66;98032.25;6276606;22;8790;-74
2021/07/24 11:40:33;;;;;;;;;0.00;0.00;;;;;27.96;68.17;98037.25;6276622;22;9618;-74
2021/07/24 11:43:10;;;;;;;;;0.00;0.00;;;;;27.98;68.12;98029.50;6276971;22;9567;-73
2021/07/24 11:45:39;;;;;;;;;0.75;0.75;;;;;27.99;68.54;98028.31;6276907;22;8833;-73
2021/07/24 11:48:15;;;;;;;;;0.00;0.00;;;;;28.02;67.76;98038.38;6276535;22;8851;-74
2021/07/24 11:50:48;;;;;;;;;0.00;0.00;;;;;28.03;68.19;98045.34;6276552;22;8791;-74
2021/07/24 11:53:20;;;;;;;;;0.00;0.00;;;;;28.03;67.67;98044.56;6276366;22;8790;-74
2021/07/24 11:55:48;;;;;;;;;0.50;0.50;;;;;28.06;67.69;98035.63;6276773;22;8799;-73
2021/07/24 11:58:18;;;;;;;;;0.00;0.00;;;;;28.05;68.10;98039.50;6276347;22;8791;-74
2021/07/24 12:00:53;;;;;;;;;0.75;0.75;;;;;28.06;67.92;98032.91;6249614;22;8932;-74
2021/07/24 12:03:45;;;;;;;;;0.00;0.00;;;;;28.03;67.76;98028.31;6277131;22;8751;-74